createdAt,value
2022-11-12T00:03:54.086Z,99.90
2022-11-12T00:06:41.261Z,99.90
2022-11-12T00:09:28.003Z,99.90
2022-11-12T00:12:16.097Z,99.90
2022-11-12T00:15:02.816Z,99.90
2022-11-12T00:17:49.559Z,99.90
2022-11-12T00:20:36.612Z,99.90
2022-11-12T00:23:23.414Z,99.90
2022-11-12T00:26:12.191Z,99.90
2022-11-12T00:29:00.522Z,99.90
2022-11-12T00:31:47.495Z,99.90
2022-11-12T00:35:13.674Z,99.90
2022-11-12T00:43:32.761Z,99.90
2022-11-12T00:51:07.564Z,99.90
2022-11-12T00:53:54.220Z,99.90
2022-11-12T00:56:41.076Z,99.90
2022-11-12T00:59:27.922Z,99.90
2022-11-12T01:02:15.948Z,99.90
2022-11-12T01:05:02.663Z,99.90
2022-11-12T01:07:54.819Z,99.90
2022-11-12T01:10:42.612Z,99.90
2022-11-12T01:13:29.408Z,99.90
2022-11-12T01:16:20.670Z,99.90
2022-11-12T01:19:11.503Z,99.90
2022-11-12T01:21:58.184Z,99.90
2022-11-12T01:24:44.780Z,99.90
2022-11-12T01:27:31.620Z,99.90
2022-11-12T01:30:18.501Z,99.90
2022-11-12T01:33:05.292Z,99.90
2022-11-12T01:35:53.188Z,99.90
2022-11-12T01:38:43.685Z,99.90
2022-11-12T01:41:33.467Z,99.90
2022-11-12T01:44:23.298Z,99.90
2022-11-12T01:47:20.142Z,99.90
2022-11-12T01:50:18.246Z,99.90
2022-11-12T01:53:12.508Z,99.90
2022-11-12T01:56:01.946Z,99.90
2022-11-12T01:58:56.661Z,99.90
2022-11-12T02:01:43.190Z,99.90
2022-11-12T02:04:30.272Z,99.90
2022-11-12T02:07:19.001Z,99.90
2022-11-12T02:10:10.981Z,99.90
2022-11-12T02:13:16.188Z,99.90
2022-11-12T02:16:04.224Z,99.90
2022-11-12T02:18:51.045Z,99.90
2022-11-12T02:21:39.477Z,99.90
2022-11-12T02:24:36.838Z,99.90
2022-11-12T02:27:24.378Z,99.90
2022-11-12T02:30:12.287Z,99.90
2022-11-12T02:32:58.882Z,99.90
2022-11-12T02:35:45.650Z,99.90
2022-11-12T02:38:33.931Z,99.90
2022-11-12T02:41:21.107Z,99.90
2022-11-12T02:44:07.758Z,99.90
2022-11-12T02:46:54.664Z,99.90
2022-11-12T02:49:41.307Z,99.90
2022-11-12T02:52:28.118Z,99.90
2022-11-12T02:55:16.645Z,99.90
2022-11-12T02:58:03.348Z,99.90
2022-11-12T03:00:51.056Z,99.90
2022-11-12T03:03:37.958Z,99.90
2022-11-12T03:06:24.901Z,99.90
2022-11-12T03:09:13.133Z,99.90
2022-11-12T03:12:01.236Z,99.90
2022-11-12T03:14:48.210Z,99.90
2022-11-12T03:17:36.169Z,99.90
2022-11-12T03:20:22.632Z,99.90
2022-11-12T03:23:11.949Z,99.90
2022-11-12T03:25:58.761Z,99.90
2022-11-12T03:28:46.583Z,99.90
2022-11-12T03:31:33.444Z,99.90
2022-11-12T03:34:20.097Z,99.90
2022-11-12T03:37:09.463Z,99.90
2022-11-12T03:39:56.001Z,99.90
2022-11-12T03:42:47.759Z,99.90
2022-11-12T03:45:35.666Z,99.90
2022-11-12T03:48:22.325Z,99.90
2022-11-12T03:51:09.000Z,99.90
2022-11-12T03:53:55.687Z,99.90
2022-11-12T03:56:42.467Z,99.90
2022-11-12T03:59:29.192Z,99.90
2022-11-12T04:02:17.464Z,99.90
2022-11-12T04:05:22.247Z,99.90
2022-11-12T04:08:33.320Z,99.90
2022-11-12T04:11:21.035Z,99.90
2022-11-12T04:14:06.947Z,99.90
2022-11-12T04:17:11.366Z,99.90
2022-11-12T04:20:13.327Z,99.90
2022-11-12T04:23:00.121Z,99.90
2022-11-12T04:26:05.112Z,99.90
2022-11-12T04:29:09.513Z,99.90
2022-11-12T04:31:56.316Z,99.90
2022-11-12T04:34:43.363Z,99.90
2022-11-12T04:37:45.146Z,99.90
2022-11-12T04:40:49.878Z,99.90
2022-11-12T04:43:54.243Z,99.90
2022-11-12T04:46:41.236Z,99.90
2022-11-12T04:49:27.836Z,99.90
2022-11-12T04:52:14.669Z,99.90
2022-11-12T04:55:03.114Z,99.90
2022-11-12T04:57:49.603Z,99.90
2022-11-12T05:00:36.413Z,99.90
2022-11-12T05:03:23.168Z,99.90
2022-11-12T05:06:30.911Z,99.90
2022-11-12T05:09:17.265Z,99.90
2022-11-12T05:12:05.807Z,99.90
2022-11-12T05:14:52.587Z,99.90
2022-11-12T05:17:44.486Z,99.90
2022-11-12T05:20:31.277Z,99.90
2022-11-12T05:23:18.144Z,99.90
2022-11-12T05:26:05.080Z,99.90
2022-11-12T05:28:53.185Z,99.90
2022-11-12T05:31:40.089Z,99.90
2022-11-12T05:34:26.933Z,99.90
2022-11-12T05:37:15.623Z,99.90
2022-11-12T05:40:02.122Z,99.90
2022-11-12T05:42:48.836Z,99.90
2022-11-12T05:45:36.847Z,99.90
2022-11-12T05:48:24.648Z,99.90
2022-11-12T05:51:14.086Z,99.90
2022-11-12T05:54:01.077Z,99.90
2022-11-12T05:56:48.095Z,99.90
2022-11-12T05:59:34.975Z,99.90
2022-11-12T06:02:23.181Z,99.90
2022-11-12T06:05:10.703Z,99.90
2022-11-12T06:07:57.282Z,99.90
2022-11-12T06:10:44.193Z,99.90
2022-11-12T06:13:31.240Z,99.90
2022-11-12T06:16:18.003Z,99.90
2022-11-12T06:19:06.175Z,99.90
2022-11-12T06:21:52.663Z,99.90
2022-11-12T06:24:39.452Z,99.90
2022-11-12T06:27:26.329Z,99.90
2022-11-12T06:30:13.882Z,99.90
2022-11-12T06:33:00.567Z,99.90
2022-11-12T06:35:48.927Z,99.90
2022-11-12T06:38:39.909Z,99.90
2022-11-12T06:41:26.674Z,99.90
2022-11-12T06:44:16.619Z,99.90
2022-11-12T06:47:07.339Z,99.90
2022-11-12T06:49:54.101Z,99.90
2022-11-12T06:52:42.136Z,99.90
2022-11-12T06:55:29.372Z,99.90
2022-11-12T07:11:16.468Z,99.90
2022-11-12T07:14:03.257Z,99.90
2022-11-12T07:16:49.944Z,99.90
2022-11-12T07:19:36.565Z,99.90
2022-11-12T07:22:23.519Z,99.90
2022-11-12T07:25:10.779Z,99.90
2022-11-12T07:27:58.629Z,99.90
2022-11-12T07:30:45.350Z,99.90
2022-11-12T07:33:33.149Z,99.90
2022-11-12T07:36:22.694Z,99.90
2022-11-12T07:39:09.655Z,99.90
2022-11-12T07:41:56.581Z,99.90
2022-11-12T07:44:44.709Z,99.90
2022-11-12T07:47:31.828Z,99.90
2022-11-12T07:50:18.563Z,99.90
2022-11-12T07:53:05.389Z,99.90
2022-11-12T07:55:56.166Z,99.90
2022-11-12T07:58:47.205Z,99.90
2022-11-12T08:01:37.319Z,99.90
2022-11-12T08:04:24.199Z,99.90
2022-11-12T08:07:11.157Z,99.90
2022-11-12T08:09:58.374Z,99.90
2022-11-12T08:12:45.433Z,99.90
2022-11-12T08:15:32.994Z,99.90
2022-11-12T08:18:21.083Z,99.90
2022-11-12T08:21:11.013Z,99.90
2022-11-12T08:23:57.860Z,99.90
2022-11-12T08:26:44.652Z,99.90
2022-11-12T08:29:31.283Z,99.90
2022-11-12T08:32:18.255Z,99.90
2022-11-12T08:35:07.123Z,99.90
2022-11-12T08:37:53.658Z,99.90
2022-11-12T08:40:40.876Z,99.90
2022-11-12T08:43:27.393Z,99.90
2022-11-12T08:46:14.268Z,99.90
2022-11-12T08:49:00.956Z,99.90
2022-11-12T08:51:49.132Z,99.90
2022-11-12T08:54:35.925Z,99.90
2022-11-12T08:57:22.639Z,99.90
2022-11-12T09:00:12.667Z,99.90
2022-11-12T09:03:01.192Z,99.90
2022-11-12T09:05:49.134Z,99.90
2022-11-12T09:08:39.739Z,99.90
2022-11-12T09:11:26.496Z,99.90
2022-11-12T09:14:13.210Z,99.90
2022-11-12T09:16:59.647Z,99.90
2022-11-12T09:19:46.258Z,99.90
2022-11-12T09:22:33.489Z,99.90
2022-11-12T09:25:21.730Z,99.90
2022-11-12T09:28:10.263Z,99.90
2022-11-12T09:30:57.262Z,99.90
2022-11-12T09:33:43.815Z,99.90
2022-11-12T09:36:30.561Z,99.90
2022-11-12T09:39:17.320Z,99.90
2022-11-12T09:42:10.222Z,99.90
2022-11-12T09:45:02.773Z,99.90
2022-11-12T09:47:55.481Z,99.90
2022-11-12T09:50:59.131Z,99.90
2022-11-12T09:53:55.653Z,99.90
2022-11-12T09:56:42.308Z,99.90
2022-11-12T09:59:34.081Z,99.90
2022-11-12T10:02:33.011Z,99.90
2022-11-12T10:05:29.921Z,99.90
2022-11-12T10:08:38.640Z,99.90
2022-11-12T10:12:16.094Z,99.90
2022-11-12T10:15:50.273Z,99.90
2022-11-12T10:18:55.611Z,99.90
2022-11-12T10:21:52.194Z,99.90
2022-11-12T10:24:42.698Z,99.90
2022-11-12T10:27:39.670Z,99.90
2022-11-12T10:30:27.821Z,99.90
2022-11-12T10:33:16.200Z,99.90
2022-11-12T10:36:28.761Z,99.90
2022-11-12T10:39:35.588Z,99.90
2022-11-12T10:42:24.088Z,99.90
2022-11-12T10:45:27.095Z,99.90
2022-11-12T10:48:27.319Z,99.90
2022-11-12T10:51:27.206Z,99.90
2022-11-12T10:54:30.056Z,99.90
2022-11-12T10:57:22.784Z,99.90
2022-11-12T11:00:21.857Z,99.90
2022-11-12T11:03:30.581Z,99.90
2022-11-12T11:06:26.887Z,99.90
2022-11-12T11:09:20.645Z,99.90
2022-11-12T11:12:24.028Z,99.90
2022-11-12T11:15:21.865Z,99.90
2022-11-12T11:18:14.569Z,99.90
2022-11-12T11:21:14.569Z,99.90
2022-11-12T11:24:19.848Z,99.90
2022-11-12T11:27:27.303Z,99.90
2022-11-12T11:30:17.827Z,99.90
2022-11-12T11:33:26.580Z,99.90
2022-11-12T11:36:25.483Z,99.90
2022-11-12T11:39:25.959Z,99.90
2022-11-12T11:42:36.830Z,99.90
2022-11-12T11:45:34.145Z,99.90
2022-11-12T11:48:44.509Z,99.90
2022-11-12T11:51:46.035Z,99.90
2022-11-12T11:55:03.936Z,99.90
2022-11-12T11:58:16.967Z,99.90
2022-11-12T12:01:17.087Z,99.90
2022-11-12T12:04:33.994Z,99.90
2022-11-12T12:07:36.243Z,99.90
2022-11-12T12:10:46.680Z,99.80
2022-11-12T12:13:53.319Z,98.00
2022-11-12T12:16:59.965Z,96.80
2022-11-12T12:20:06.028Z,95.60
2022-11-12T12:23:00.170Z,98.30
2022-11-12T12:25:50.769Z,95.70
2022-11-12T12:28:44.690Z,97.10
2022-11-12T12:31:39.177Z,95.50
2022-11-12T12:34:33.073Z,95.80
2022-11-12T12:37:31.603Z,96.10
2022-11-12T12:40:24.680Z,96.20
2022-11-12T12:43:23.155Z,97.00
2022-11-12T12:46:15.006Z,98.40
2022-11-12T12:49:06.020Z,98.70
2022-11-12T12:51:55.946Z,99.90
2022-11-12T12:54:59.614Z,99.90
2022-11-12T12:57:46.267Z,99.90
2022-11-12T13:00:39.274Z,99.90
2022-11-12T13:03:54.950Z,99.90
2022-11-12T13:06:53.598Z,99.90
2022-11-12T13:09:39.975Z,99.90
2022-11-12T13:13:04.928Z,99.90
2022-11-12T13:15:53.813Z,99.90
2022-11-12T13:19:02.184Z,99.90
2022-11-12T13:21:48.651Z,99.90
2022-11-12T13:25:04.931Z,99.90
2022-11-12T13:28:14.378Z,99.90
2022-11-12T13:31:04.413Z,99.90
2022-11-12T13:33:51.359Z,99.90
2022-11-12T13:36:38.585Z,99.90
2022-11-12T13:39:26.084Z,99.90
2022-11-12T13:42:34.273Z,99.90
2022-11-12T13:45:25.129Z,99.90
2022-11-12T13:48:19.174Z,99.90
2022-11-12T13:51:14.059Z,99.90
2022-11-12T13:54:00.802Z,99.90
2022-11-12T13:56:47.619Z,99.90
2022-11-12T13:59:43.007Z,99.90
2022-11-12T14:02:30.895Z,99.90
2022-11-12T14:05:23.207Z,99.90
2022-11-12T14:08:45.933Z,99.90
2022-11-12T14:11:56.593Z,99.90
2022-11-12T14:15:08.633Z,99.90
2022-11-12T14:18:09.752Z,99.90
2022-11-12T14:20:57.402Z,99.90
2022-11-12T14:23:47.669Z,99.90
2022-11-12T14:26:38.256Z,99.90
2022-11-12T14:29:27.696Z,99.90
2022-11-12T14:32:18.486Z,99.90
2022-11-12T14:35:37.853Z,99.90
2022-11-12T14:38:30.243Z,99.90
2022-11-12T14:41:22.086Z,99.90
2022-11-12T14:44:13.400Z,99.90
2022-11-12T14:47:00.567Z,99.90
2022-11-12T14:49:50.886Z,99.90
2022-11-12T14:52:46.288Z,99.90
2022-11-12T14:55:38.271Z,99.90
2022-11-12T14:58:27.860Z,99.90
2022-11-12T15:02:08.509Z,99.90
2022-11-12T15:04:39.989Z,99.90
2022-11-12T15:07:29.819Z,99.90
2022-11-12T15:10:38.343Z,99.90
2022-11-12T15:13:28.335Z,99.90
2022-11-12T15:16:23.395Z,99.90
2022-11-12T15:19:21.335Z,99.90
2022-11-12T15:22:07.940Z,99.90
2022-11-12T15:24:54.636Z,99.90
2022-11-12T15:27:43.877Z,99.90
2022-11-12T15:30:41.415Z,99.90
2022-11-12T15:33:28.646Z,99.90
2022-11-12T15:36:20.218Z,99.90
2022-11-12T15:39:17.195Z,99.90
2022-11-12T15:42:07.933Z,99.90
2022-11-12T15:45:01.063Z,99.90
2022-11-12T15:47:48.430Z,99.90
2022-11-12T15:50:35.007Z,99.90
2022-11-12T15:53:21.893Z,99.90
2022-11-12T15:56:15.261Z,99.90
2022-11-12T15:59:02.263Z,99.90
2022-11-12T16:01:51.537Z,99.90
2022-11-12T16:04:37.999Z,99.90
2022-11-12T16:07:24.924Z,99.90
2022-11-12T16:10:16.357Z,99.90
2022-11-12T16:13:05.734Z,99.90
2022-11-12T16:15:53.502Z,99.90
2022-11-12T16:18:41.773Z,99.90
2022-11-12T16:21:28.562Z,99.90
2022-11-12T16:24:15.386Z,99.90
2022-11-12T16:27:04.722Z,99.90
2022-11-12T16:29:51.785Z,99.90
2022-11-12T16:32:38.556Z,99.90
2022-11-12T16:35:28.853Z,99.90
2022-11-12T16:38:17.827Z,99.90
2022-11-12T16:41:04.357Z,99.90
2022-11-12T16:43:52.740Z,99.90
2022-11-12T16:46:41.007Z,99.90
2022-11-12T16:49:28.012Z,99.90
2022-11-12T16:52:16.364Z,99.90
2022-11-12T16:55:04.957Z,99.90
2022-11-12T16:57:51.643Z,99.90
2022-11-12T17:00:38.915Z,99.90
2022-11-12T17:03:25.940Z,99.90
2022-11-12T17:06:12.999Z,99.90
2022-11-12T17:09:01.226Z,99.90
2022-11-12T17:11:48.051Z,99.90
2022-11-12T17:14:34.878Z,99.90
2022-11-12T17:17:21.538Z,99.90
2022-11-12T17:20:10.004Z,99.90
2022-11-12T17:22:57.056Z,99.90
2022-11-12T17:25:45.387Z,99.90
2022-11-12T17:28:32.756Z,99.90
2022-11-12T17:31:22.732Z,99.90
2022-11-12T17:34:10.651Z,99.90
2022-11-12T17:36:57.547Z,99.90
2022-11-12T17:39:44.762Z,99.90
2022-11-12T17:42:32.925Z,99.90
2022-11-12T17:45:20.019Z,99.90
2022-11-12T17:48:07.281Z,99.90
2022-11-12T17:51:06.018Z,99.90
2022-11-12T17:53:53.359Z,99.90
2022-11-12T17:56:39.831Z,99.90
2022-11-12T17:59:27.968Z,99.90
2022-11-12T18:02:15.020Z,99.90
2022-11-12T18:05:01.419Z,99.90
2022-11-12T18:07:48.216Z,99.90
2022-11-12T18:10:35.130Z,99.90
2022-11-12T18:13:22.029Z,99.90
2022-11-12T18:16:18.062Z,99.90
2022-11-12T18:19:05.655Z,99.90
2022-11-12T18:21:56.743Z,99.90
2022-11-12T18:24:43.639Z,99.90
2022-11-12T18:27:30.414Z,99.90
2022-11-12T18:30:19.414Z,99.90
2022-11-12T18:33:07.710Z,99.90
2022-11-12T18:36:03.002Z,99.90
2022-11-12T18:38:50.736Z,99.90
2022-11-12T18:41:37.536Z,99.90
2022-11-12T18:44:26.229Z,99.90
2022-11-12T18:47:13.286Z,99.90
2022-11-12T18:50:07.129Z,99.90
2022-11-12T18:52:55.102Z,99.90
2022-11-12T18:55:42.046Z,99.90
2022-11-12T18:58:34.920Z,99.90
2022-11-12T19:01:24.615Z,99.90
2022-11-12T19:04:12.727Z,99.90
2022-11-12T19:07:00.444Z,99.90
2022-11-12T19:09:47.001Z,99.90
2022-11-12T19:12:33.820Z,99.90
2022-11-12T19:15:25.617Z,99.90
2022-11-12T19:18:13.528Z,99.90
2022-11-12T19:21:06.251Z,99.90
2022-11-12T19:23:57.076Z,99.90
2022-11-12T19:26:43.893Z,99.90
2022-11-12T19:29:31.910Z,99.90
2022-11-12T19:32:18.719Z,99.90
2022-11-12T19:35:06.359Z,99.90
2022-11-12T19:37:52.924Z,99.90
2022-11-12T19:40:41.141Z,99.90
2022-11-12T19:43:28.459Z,99.90
2022-11-12T19:46:15.861Z,99.90
2022-11-12T19:49:02.471Z,99.90
2022-11-12T19:51:49.320Z,99.90
2022-11-12T19:54:35.990Z,99.90
2022-11-12T19:57:24.107Z,99.90
2022-11-12T20:00:15.683Z,99.90
2022-11-12T20:03:02.666Z,99.90
2022-11-12T20:05:49.387Z,99.90
2022-11-12T20:08:36.744Z,99.90
2022-11-12T20:11:23.346Z,99.90
2022-11-12T20:14:11.617Z,99.90
2022-11-12T20:16:58.288Z,99.90
2022-11-12T20:19:47.680Z,99.90
2022-11-12T20:22:34.952Z,99.90
2022-11-12T20:25:32.436Z,99.90
2022-11-12T20:28:20.081Z,99.90
2022-11-12T20:31:12.367Z,99.90
2022-11-12T20:33:59.054Z,99.90
2022-11-12T20:36:45.861Z,99.90
2022-11-12T20:39:33.498Z,99.90
2022-11-12T20:42:20.133Z,99.90
2022-11-12T20:45:08.072Z,99.90
2022-11-12T20:47:57.504Z,99.90
2022-11-12T20:51:09.382Z,99.90
2022-11-12T20:53:58.944Z,99.90
2022-11-12T20:56:46.617Z,99.90
2022-11-12T20:59:33.197Z,99.90
2022-11-12T21:02:19.984Z,99.90
2022-11-12T21:05:08.871Z,99.90
2022-11-12T21:07:56.540Z,99.90
2022-11-12T21:10:43.105Z,99.90
2022-11-12T21:13:30.083Z,99.90
2022-11-12T21:16:17.523Z,99.90
2022-11-12T21:19:05.928Z,99.90
2022-11-12T21:21:54.031Z,99.90
2022-11-12T21:24:40.957Z,99.90
2022-11-12T21:27:27.450Z,99.90
2022-11-12T21:30:14.080Z,99.90
2022-11-12T21:33:00.966Z,99.90
2022-11-12T21:35:53.675Z,99.90
2022-11-12T21:38:41.749Z,99.90
2022-11-12T21:41:31.949Z,99.90
2022-11-12T21:44:18.805Z,99.90
2022-11-12T21:47:05.851Z,99.90
2022-11-12T21:49:52.523Z,99.90
2022-11-12T21:52:39.164Z,99.90
2022-11-12T21:55:27.212Z,99.90
2022-11-12T21:58:14.012Z,99.90
2022-11-12T22:01:09.500Z,99.90
2022-11-12T22:03:58.794Z,99.90
2022-11-12T22:06:46.550Z,99.90
2022-11-12T22:09:33.404Z,99.90
2022-11-12T22:12:21.670Z,99.90
2022-11-12T22:15:09.497Z,99.90
2022-11-12T22:17:58.429Z,99.90
2022-11-12T22:20:44.885Z,99.90
2022-11-12T22:23:35.770Z,99.90
2022-11-12T22:26:25.259Z,99.90
2022-11-12T22:29:13.166Z,99.90
2022-11-12T22:32:00.056Z,99.90
2022-11-12T22:34:49.437Z,99.90
2022-11-12T22:37:36.371Z,99.90
2022-11-12T22:40:23.238Z,99.90
2022-11-12T22:43:09.890Z,99.90
2022-11-12T22:45:57.650Z,99.90
2022-11-12T22:48:44.853Z,99.90
2022-11-12T22:51:34.999Z,99.90
2022-11-12T22:54:21.843Z,99.90
2022-11-12T22:57:08.410Z,99.90
2022-11-12T22:59:55.081Z,99.90
2022-11-12T23:02:47.347Z,99.90
2022-11-12T23:05:36.797Z,99.90
2022-11-12T23:08:23.515Z,99.90
2022-11-12T23:11:13.494Z,99.90
2022-11-12T23:14:00.080Z,99.90
2022-11-12T23:16:46.809Z,99.90
2022-11-12T23:19:34.853Z,99.90
2022-11-12T23:22:22.247Z,99.90
2022-11-12T23:25:10.288Z,99.90
2022-11-12T23:27:57.095Z,99.90
2022-11-12T23:30:51.151Z,99.90
2022-11-12T23:33:37.537Z,99.90
2022-11-12T23:36:27.414Z,99.90
2022-11-12T23:39:13.895Z,99.90
2022-11-12T23:42:00.682Z,99.90
2022-11-12T23:44:47.475Z,99.90
2022-11-12T23:47:34.081Z,99.90
2022-11-12T23:50:20.779Z,99.90
2022-11-12T23:53:08.857Z,99.90
2022-11-12T23:55:55.732Z,99.90
2022-11-12T23:58:43.242Z,99.90
